sensor_id;sensor_type;location;lat;lon;timestamp;P1;durP1;ratioP1;P2;durP2;ratioP2
22778;SDS011;11556;51.194;3.800;2023-06-10T00:00:55;9.25;;;7.82;;
22778;SDS011;11556;51.194;3.800;2023-06-10T00:03:21;11.77;;;7.68;;
22778;SDS011;11556;51.194;3.800;2023-06-10T00:05:49;9.52;;;8.05;;
22778;SDS011;11556;51.194;3.800;2023-06-10T00:08:14;10.13;;;8.10;;
22778;SDS011;11556;51.194;3.800;2023-06-10T00:10:40;8.20;;;7.40;;
22778;SDS011;11556;51.194;3.800;2023-06-10T00:13:06;13.73;;;7.88;;
22778;SDS011;11556;51.194;3.800;2023-06-10T00:15:36;8.55;;;7.65;;
22778;SDS011;11556;51.194;3.800;2023-06-10T00:18:02;9.05;;;7.97;;
22778;SDS011;11556;51.194;3.800;2023-06-10T00:20:29;18.70;;;7.85;;
22778;SDS011;11556;51.194;3.800;2023-06-10T00:22:56;9.10;;;7.03;;
22778;SDS011;11556;51.194;3.800;2023-06-10T00:25:24;10.15;;;7.95;;
22778;SDS011;11556;51.194;3.800;2023-06-10T00:27:51;8.32;;;7.40;;
22778;SDS011;11556;51.194;3.800;2023-06-10T00:30:16;12.68;;;8.45;;
22778;SDS011;11556;51.194;3.800;2023-06-10T00:32:42;10.50;;;8.13;;
22778;SDS011;11556;51.194;3.800;2023-06-10T00:35:08;9.80;;;8.10;;
22778;SDS011;11556;51.194;3.800;2023-06-10T00:37:34;13.48;;;8.25;;
22778;SDS011;11556;51.194;3.800;2023-06-10T00:40:01;9.38;;;7.40;;
22778;SDS011;11556;51.194;3.800;2023-06-10T00:42:27;11.57;;;8.00;;
22778;SDS011;11556;51.194;3.800;2023-06-10T00:44:53;11.02;;;8.07;;
22778;SDS011;11556;51.194;3.800;2023-06-10T00:47:19;9.52;;;7.80;;
22778;SDS011;11556;51.194;3.800;2023-06-10T00:49:45;8.95;;;8.05;;
22778;SDS011;11556;51.194;3.800;2023-06-10T00:52:12;9.65;;;8.00;;
22778;SDS011;11556;51.194;3.800;2023-06-10T00:54:40;10.00;;;7.80;;
22778;SDS011;11556;51.194;3.800;2023-06-10T00:57:06;12.27;;;8.60;;
22778;SDS011;11556;51.194;3.800;2023-06-10T00:59:31;9.55;;;7.93;;
22778;SDS011;11556;51.194;3.800;2023-06-10T01:01:57;8.52;;;7.63;;
22778;SDS011;11556;51.194;3.800;2023-06-10T01:04:24;8.73;;;7.70;;
22778;SDS011;11556;51.194;3.800;2023-06-10T01:09:32;12.52;;;8.40;;
22778;SDS011;11556;51.194;3.800;2023-06-10T01:12:17;9.93;;;7.63;;
22778;SDS011;11556;51.194;3.800;2023-06-10T01:14:51;9.07;;;8.07;;
22778;SDS011;11556;51.194;3.800;2023-06-10T01:17:17;8.88;;;7.93;;
22778;SDS011;11556;51.194;3.800;2023-06-10T01:19:43;11.25;;;8.15;;
22778;SDS011;11556;51.194;3.800;2023-06-10T01:22:09;11.20;;;8.25;;
22778;SDS011;11556;51.194;3.800;2023-06-10T01:24:36;9.27;;;8.25;;
22778;SDS011;11556;51.194;3.800;2023-06-10T01:27:03;10.40;;;8.32;;
22778;SDS011;11556;51.194;3.800;2023-06-10T01:29:39;11.93;;;8.05;;
22778;SDS011;11556;51.194;3.800;2023-06-10T01:32:17;9.30;;;8.20;;
22778;SDS011;11556;51.194;3.800;2023-06-10T01:34:47;11.38;;;7.85;;
22778;SDS011;11556;51.194;3.800;2023-06-10T01:37:15;9.32;;;8.43;;
22778;SDS011;11556;51.194;3.800;2023-06-10T01:39:45;12.82;;;8.90;;
22778;SDS011;11556;51.194;3.800;2023-06-10T01:42:12;12.27;;;8.60;;
22778;SDS011;11556;51.194;3.800;2023-06-10T01:44:38;11.02;;;8.20;;
22778;SDS011;11556;51.194;3.800;2023-06-10T01:47:04;9.70;;;7.90;;
22778;SDS011;11556;51.194;3.800;2023-06-10T01:49:30;11.18;;;8.30;;
22778;SDS011;11556;51.194;3.800;2023-06-10T01:51:56;11.02;;;9.20;;
22778;SDS011;11556;51.194;3.800;2023-06-10T01:54:21;11.43;;;9.18;;
22778;SDS011;11556;51.194;3.800;2023-06-10T01:56:47;13.90;;;9.05;;
22778;SDS011;11556;51.194;3.800;2023-06-10T01:59:13;11.65;;;8.50;;
22778;SDS011;11556;51.194;3.800;2023-06-10T02:01:38;9.43;;;8.18;;
22778;SDS011;11556;51.194;3.800;2023-06-10T02:04:04;11.18;;;8.27;;
22778;SDS011;11556;51.194;3.800;2023-06-10T02:06:30;12.10;;;8.50;;
22778;SDS011;11556;51.194;3.800;2023-06-10T02:08:56;11.15;;;8.18;;
22778;SDS011;11556;51.194;3.800;2023-06-10T02:11:21;11.02;;;8.68;;
22778;SDS011;11556;51.194;3.800;2023-06-10T02:13:47;9.57;;;8.18;;
22778;SDS011;11556;51.194;3.800;2023-06-10T02:16:12;11.40;;;8.55;;
22778;SDS011;11556;51.194;3.800;2023-06-10T02:18:39;9.32;;;8.18;;
22778;SDS011;11556;51.194;3.800;2023-06-10T02:21:08;10.45;;;8.63;;
22778;SDS011;11556;51.194;3.800;2023-06-10T02:23:33;12.10;;;8.93;;
22778;SDS011;11556;51.194;3.800;2023-06-10T02:25:59;9.82;;;8.25;;
22778;SDS011;11556;51.194;3.800;2023-06-10T02:28:25;12.13;;;9.20;;
22778;SDS011;11556;51.194;3.800;2023-06-10T02:30:51;11.23;;;9.40;;
22778;SDS011;11556;51.194;3.800;2023-06-10T02:33:17;10.68;;;8.95;;
22778;SDS011;11556;51.194;3.800;2023-06-10T02:35:43;14.02;;;8.82;;
22778;SDS011;11556;51.194;3.800;2023-06-10T02:38:09;15.45;;;9.32;;
22778;SDS011;11556;51.194;3.800;2023-06-10T02:40:34;11.43;;;9.38;;
22778;SDS011;11556;51.194;3.800;2023-06-10T02:43:00;14.93;;;9.07;;
22778;SDS011;11556;51.194;3.800;2023-06-10T02:45:25;11.00;;;8.35;;
22778;SDS011;11556;51.194;3.800;2023-06-10T02:47:51;10.55;;;9.05;;
22778;SDS011;11556;51.194;3.800;2023-06-10T02:50:17;15.10;;;9.20;;
22778;SDS011;11556;51.194;3.800;2023-06-10T02:52:43;12.00;;;9.35;;
22778;SDS011;11556;51.194;3.800;2023-06-10T02:55:08;10.32;;;9.18;;
22778;SDS011;11556;51.194;3.800;2023-06-10T02:57:34;13.15;;;8.82;;
22778;SDS011;11556;51.194;3.800;2023-06-10T03:00:00;10.35;;;9.25;;
22778;SDS011;11556;51.194;3.800;2023-06-10T03:02:28;12.25;;;9.30;;
22778;SDS011;11556;51.194;3.800;2023-06-10T03:04:57;11.15;;;8.77;;
22778;SDS011;11556;51.194;3.800;2023-06-10T03:07:23;12.63;;;9.27;;
22778;SDS011;11556;51.194;3.800;2023-06-10T03:09:49;11.10;;;8.80;;
22778;SDS011;11556;51.194;3.800;2023-06-10T03:12:15;12.95;;;9.32;;
22778;SDS011;11556;51.194;3.800;2023-06-10T03:14:41;10.40;;;8.55;;
22778;SDS011;11556;51.194;3.800;2023-06-10T03:17:07;13.57;;;9.90;;
22778;SDS011;11556;51.194;3.800;2023-06-10T03:19:33;16.30;;;10.00;;
22778;SDS011;11556;51.194;3.800;2023-06-10T03:22:12;13.57;;;9.63;;
22778;SDS011;11556;51.194;3.800;2023-06-10T03:24:39;13.48;;;8.77;;
22778;SDS011;11556;51.194;3.800;2023-06-10T03:27:09;11.55;;;9.48;;
22778;SDS011;11556;51.194;3.800;2023-06-10T03:29:36;10.43;;;9.32;;
22778;SDS011;11556;51.194;3.800;2023-06-10T03:32:02;13.00;;;9.43;;
22778;SDS011;11556;51.194;3.800;2023-06-10T03:34:28;10.35;;;9.18;;
22778;SDS011;11556;51.194;3.800;2023-06-10T03:36:54;10.52;;;9.38;;
22778;SDS011;11556;51.194;3.800;2023-06-10T03:39:21;12.13;;;9.55;;
22778;SDS011;11556;51.194;3.800;2023-06-10T03:41:48;11.05;;;9.65;;
22778;SDS011;11556;51.194;3.800;2023-06-10T03:44:14;13.45;;;9.95;;
22778;SDS011;11556;51.194;3.800;2023-06-10T03:46:40;12.40;;;9.48;;
22778;SDS011;11556;51.194;3.800;2023-06-10T03:49:06;11.07;;;9.35;;
22778;SDS011;11556;51.194;3.800;2023-06-10T03:51:31;10.75;;;8.93;;
22778;SDS011;11556;51.194;3.800;2023-06-10T03:53:57;13.85;;;9.50;;
22778;SDS011;11556;51.194;3.800;2023-06-10T03:56:22;13.00;;;10.25;;
22778;SDS011;11556;51.194;3.800;2023-06-10T03:58:48;12.93;;;9.43;;
22778;SDS011;11556;51.194;3.800;2023-06-10T04:01:13;13.50;;;10.15;;
22778;SDS011;11556;51.194;3.800;2023-06-10T04:03:40;14.05;;;10.40;;
22778;SDS011;11556;51.194;3.800;2023-06-10T04:06:06;12.05;;;10.18;;
22778;SDS011;11556;51.194;3.800;2023-06-10T04:08:32;13.43;;;10.55;;
22778;SDS011;11556;51.194;3.800;2023-06-10T04:10:58;13.63;;;10.48;;
22778;SDS011;11556;51.194;3.800;2023-06-10T04:13:24;12.05;;;10.10;;
22778;SDS011;11556;51.194;3.800;2023-06-10T04:15:50;13.27;;;9.55;;
22778;SDS011;11556;51.194;3.800;2023-06-10T04:18:16;13.52;;;10.65;;
22778;SDS011;11556;51.194;3.800;2023-06-10T04:20:41;12.85;;;10.63;;
22778;SDS011;11556;51.194;3.800;2023-06-10T04:23:07;15.82;;;10.95;;
22778;SDS011;11556;51.194;3.800;2023-06-10T04:25:33;12.40;;;10.02;;
22778;SDS011;11556;51.194;3.800;2023-06-10T04:27:59;12.90;;;9.90;;
22778;SDS011;11556;51.194;3.800;2023-06-10T04:30:25;12.40;;;10.27;;
22778;SDS011;11556;51.194;3.800;2023-06-10T04:32:50;14.88;;;10.38;;
22778;SDS011;11556;51.194;3.800;2023-06-10T04:35:17;11.95;;;10.70;;
22778;SDS011;11556;51.194;3.800;2023-06-10T04:37:42;11.63;;;10.35;;
22778;SDS011;11556;51.194;3.800;2023-06-10T04:40:08;16.52;;;10.90;;
22778;SDS011;11556;51.194;3.800;2023-06-10T04:42:35;12.80;;;10.15;;
22778;SDS011;11556;51.194;3.800;2023-06-10T04:45:01;12.40;;;10.30;;
22778;SDS011;11556;51.194;3.800;2023-06-10T04:47:28;13.57;;;10.85;;
22778;SDS011;11556;51.194;3.800;2023-06-10T04:49:58;13.15;;;10.07;;
22778;SDS011;11556;51.194;3.800;2023-06-10T04:52:25;12.25;;;10.18;;
22778;SDS011;11556;51.194;3.800;2023-06-10T04:54:50;13.05;;;9.95;;
22778;SDS011;11556;51.194;3.800;2023-06-10T04:57:16;11.80;;;10.00;;
22778;SDS011;11556;51.194;3.800;2023-06-10T04:59:42;11.15;;;10.00;;
22778;SDS011;11556;51.194;3.800;2023-06-10T05:02:07;13.98;;;10.18;;
22778;SDS011;11556;51.194;3.800;2023-06-10T05:04:33;13.10;;;9.43;;
22778;SDS011;11556;51.194;3.800;2023-06-10T05:06:58;10.70;;;9.50;;
22778;SDS011;11556;51.194;3.800;2023-06-10T05:09:24;12.43;;;9.38;;
22778;SDS011;11556;51.194;3.800;2023-06-10T05:11:51;11.80;;;9.25;;
22778;SDS011;11556;51.194;3.800;2023-06-10T05:14:18;10.65;;;9.23;;
22778;SDS011;11556;51.194;3.800;2023-06-10T05:16:45;11.18;;;9.02;;
22778;SDS011;11556;51.194;3.800;2023-06-10T05:19:11;12.55;;;9.80;;
22778;SDS011;11556;51.194;3.800;2023-06-10T05:21:37;9.48;;;8.48;;
22778;SDS011;11556;51.194;3.800;2023-06-10T05:24:03;10.50;;;8.57;;
22778;SDS011;11556;51.194;3.800;2023-06-10T05:26:28;10.57;;;8.77;;
22778;SDS011;11556;51.194;3.800;2023-06-10T05:28:56;11.70;;;9.38;;
22778;SDS011;11556;51.194;3.800;2023-06-10T05:31:22;10.68;;;9.07;;
22778;SDS011;11556;51.194;3.800;2023-06-10T05:33:47;10.45;;;8.27;;
22778;SDS011;11556;51.194;3.800;2023-06-10T05:36:13;11.35;;;8.70;;
22778;SDS011;11556;51.194;3.800;2023-06-10T05:38:39;11.90;;;8.40;;
22778;SDS011;11556;51.194;3.800;2023-06-10T05:41:04;11.65;;;8.60;;
22778;SDS011;11556;51.194;3.800;2023-06-10T05:43:30;12.90;;;8.18;;
22778;SDS011;11556;51.194;3.800;2023-06-10T05:45:55;10.60;;;8.13;;
22778;SDS011;11556;51.194;3.800;2023-06-10T05:48:21;10.07;;;8.02;;
22778;SDS011;11556;51.194;3.800;2023-06-10T05:50:47;11.73;;;8.05;;
22778;SDS011;11556;51.194;3.800;2023-06-10T05:53:16;9.02;;;7.75;;
22778;SDS011;11556;51.194;3.800;2023-06-10T05:55:42;9.70;;;8.02;;
22778;SDS011;11556;51.194;3.800;2023-06-10T05:58:08;9.45;;;8.05;;
22778;SDS011;11556;51.194;3.800;2023-06-10T06:00:34;10.23;;;8.50;;
22778;SDS011;11556;51.194;3.800;2023-06-10T06:03:00;8.95;;;8.02;;
22778;SDS011;11556;51.194;3.800;2023-06-10T06:05:26;11.35;;;8.15;;
22778;SDS011;11556;51.194;3.800;2023-06-10T06:07:51;9.82;;;8.43;;
22778;SDS011;11556;51.194;3.800;2023-06-10T06:10:17;8.80;;;7.78;;
22778;SDS011;11556;51.194;3.800;2023-06-10T06:12:43;11.50;;;8.38;;
22778;SDS011;11556;51.194;3.800;2023-06-10T06:15:10;8.82;;;7.93;;
22778;SDS011;11556;51.194;3.800;2023-06-10T06:17:36;10.00;;;8.35;;
22778;SDS011;11556;51.194;3.800;2023-06-10T06:20:02;12.30;;;8.20;;
22778;SDS011;11556;51.194;3.800;2023-06-10T06:22:28;9.65;;;8.60;;
22778;SDS011;11556;51.194;3.800;2023-06-10T06:24:54;9.85;;;8.60;;
22778;SDS011;11556;51.194;3.800;2023-06-10T06:27:19;9.00;;;8.00;;
22778;SDS011;11556;51.194;3.800;2023-06-10T06:29:46;9.55;;;7.72;;
22778;SDS011;11556;51.194;3.800;2023-06-10T06:32:12;9.50;;;8.15;;
22778;SDS011;11556;51.194;3.800;2023-06-10T06:34:37;8.25;;;7.38;;
22778;SDS011;11556;51.194;3.800;2023-06-10T06:37:03;11.05;;;7.45;;
22778;SDS011;11556;51.194;3.800;2023-06-10T06:39:29;12.65;;;7.47;;
22778;SDS011;11556;51.194;3.800;2023-06-10T06:41:55;9.27;;;7.72;;
22778;SDS011;11556;51.194;3.800;2023-06-10T06:44:20;8.70;;;6.63;;
22778;SDS011;11556;51.194;3.800;2023-06-10T06:46:46;9.75;;;6.97;;
22778;SDS011;11556;51.194;3.800;2023-06-10T06:49:12;10.13;;;7.53;;
22778;SDS011;11556;51.194;3.800;2023-06-10T06:51:37;8.05;;;7.35;;
22778;SDS011;11556;51.194;3.800;2023-06-10T06:54:03;7.57;;;6.78;;
22778;SDS011;11556;51.194;3.800;2023-06-10T06:56:30;8.57;;;7.18;;
22778;SDS011;11556;51.194;3.800;2023-06-10T06:58:56;8.68;;;7.55;;
22778;SDS011;11556;51.194;3.800;2023-06-10T07:01:22;11.00;;;7.25;;
22778;SDS011;11556;51.194;3.800;2023-06-10T07:03:48;8.20;;;7.40;;
22778;SDS011;11556;51.194;3.800;2023-06-10T07:06:13;9.93;;;6.70;;
22778;SDS011;11556;51.194;3.800;2023-06-10T07:08:39;10.70;;;6.85;;
22778;SDS011;11556;51.194;3.800;2023-06-10T07:11:05;7.38;;;6.50;;
22778;SDS011;11556;51.194;3.800;2023-06-10T07:13:30;7.85;;;6.97;;
22778;SDS011;11556;51.194;3.800;2023-06-10T07:15:56;7.50;;;6.70;;
22778;SDS011;11556;51.194;3.800;2023-06-10T07:18:22;7.32;;;6.63;;
22778;SDS011;11556;51.194;3.800;2023-06-10T07:20:47;11.95;;;7.13;;
22778;SDS011;11556;51.194;3.800;2023-06-10T07:23:13;8.52;;;6.78;;
22778;SDS011;11556;51.194;3.800;2023-06-10T07:25:38;7.60;;;6.45;;
22778;SDS011;11556;51.194;3.800;2023-06-10T07:28:05;7.20;;;6.45;;
22778;SDS011;11556;51.194;3.800;2023-06-10T07:30:31;7.50;;;6.70;;
22778;SDS011;11556;51.194;3.800;2023-06-10T07:32:56;7.32;;;6.63;;
22778;SDS011;11556;51.194;3.800;2023-06-10T07:35:22;11.00;;;6.15;;
22778;SDS011;11556;51.194;3.800;2023-06-10T07:37:48;7.00;;;6.35;;
22778;SDS011;11556;51.194;3.800;2023-06-10T07:40:14;10.02;;;6.78;;
22778;SDS011;11556;51.194;3.800;2023-06-10T07:42:39;7.03;;;6.30;;
22778;SDS011;11556;51.194;3.800;2023-06-10T07:45:05;8.98;;;6.88;;
22778;SDS011;11556;51.194;3.800;2023-06-10T07:47:32;8.88;;;6.78;;
22778;SDS011;11556;51.194;3.800;2023-06-10T07:49:59;8.07;;;6.65;;
22778;SDS011;11556;51.194;3.800;2023-06-10T07:52:24;10.88;;;6.47;;
22778;SDS011;11556;51.194;3.800;2023-06-10T07:54:51;8.68;;;6.45;;
22778;SDS011;11556;51.194;3.800;2023-06-10T07:57:17;7.85;;;6.90;;
22778;SDS011;11556;51.194;3.800;2023-06-10T07:59:42;9.23;;;6.47;;
22778;SDS011;11556;51.194;3.800;2023-06-10T08:02:09;8.68;;;6.90;;
22778;SDS011;11556;51.194;3.800;2023-06-10T08:04:35;6.82;;;6.05;;
22778;SDS011;11556;51.194;3.800;2023-06-10T08:07:01;7.13;;;6.25;;
22778;SDS011;11556;51.194;3.800;2023-06-10T08:09:27;7.65;;;6.20;;
22778;SDS011;11556;51.194;3.800;2023-06-10T08:11:53;10.02;;;6.10;;
22778;SDS011;11556;51.194;3.800;2023-06-10T08:14:18;6.78;;;5.22;;
22778;SDS011;11556;51.194;3.800;2023-06-10T08:16:44;9.80;;;6.07;;
22778;SDS011;11556;51.194;3.800;2023-06-10T08:19:10;7.35;;;5.53;;
22778;SDS011;11556;51.194;3.800;2023-06-10T08:21:36;6.10;;;5.47;;
22778;SDS011;11556;51.194;3.800;2023-06-10T08:24:04;6.70;;;5.72;;
22778;SDS011;11556;51.194;3.800;2023-06-10T08:26:31;6.15;;;5.30;;
22778;SDS011;11556;51.194;3.800;2023-06-10T08:28:56;6.43;;;5.82;;
22778;SDS011;11556;51.194;3.800;2023-06-10T08:31:22;5.97;;;5.35;;
22778;SDS011;11556;51.194;3.800;2023-06-10T08:33:47;6.57;;;5.72;;
22778;SDS011;11556;51.194;3.800;2023-06-10T08:36:13;7.68;;;5.38;;
22778;SDS011;11556;51.194;3.800;2023-06-10T08:38:39;6.85;;;5.50;;
22778;SDS011;11556;51.194;3.800;2023-06-10T08:41:05;6.03;;;4.95;;
22778;SDS011;11556;51.194;3.800;2023-06-10T08:43:33;5.25;;;4.55;;
22778;SDS011;11556;51.194;3.800;2023-06-10T08:46:04;7.18;;;5.40;;
22778;SDS011;11556;51.194;3.800;2023-06-10T08:48:34;6.15;;;4.70;;
22778;SDS011;11556;51.194;3.800;2023-06-10T08:51:04;6.13;;;4.88;;
22778;SDS011;11556;51.194;3.800;2023-06-10T08:53:31;5.43;;;4.75;;
22778;SDS011;11556;51.194;3.800;2023-06-10T08:55:58;5.30;;;4.80;;
22778;SDS011;11556;51.194;3.800;2023-06-10T08:58:27;5.50;;;4.35;;
22778;SDS011;11556;51.194;3.800;2023-06-10T09:00:54;6.60;;;4.47;;
22778;SDS011;11556;51.194;3.800;2023-06-10T09:03:20;7.75;;;4.88;;
22778;SDS011;11556;51.194;3.800;2023-06-10T09:05:46;5.20;;;4.78;;
22778;SDS011;11556;51.194;3.800;2023-06-10T09:08:13;6.80;;;4.57;;
22778;SDS011;11556;51.194;3.800;2023-06-10T09:10:40;5.93;;;4.82;;
22778;SDS011;11556;51.194;3.800;2023-06-10T09:13:06;6.50;;;5.15;;
22778;SDS011;11556;51.194;3.800;2023-06-10T09:15:32;5.78;;;5.22;;
22778;SDS011;11556;51.194;3.800;2023-06-10T09:17:58;6.20;;;4.90;;
22778;SDS011;11556;51.194;3.800;2023-06-10T09:20:24;5.70;;;5.18;;
22778;SDS011;11556;51.194;3.800;2023-06-10T09:22:50;5.78;;;4.72;;
22778;SDS011;11556;51.194;3.800;2023-06-10T09:25:16;5.70;;;4.53;;
22778;SDS011;11556;51.194;3.800;2023-06-10T09:27:49;5.75;;;4.78;;
22778;SDS011;11556;51.194;3.800;2023-06-10T09:32:58;6.85;;;4.70;;
22778;SDS011;11556;51.194;3.800;2023-06-10T09:35:25;5.35;;;4.65;;
22778;SDS011;11556;51.194;3.800;2023-06-10T09:37:52;6.50;;;5.20;;
22778;SDS011;11556;51.194;3.800;2023-06-10T09:40:19;7.20;;;5.68;;
22778;SDS011;11556;51.194;3.800;2023-06-10T09:42:45;6.22;;;5.03;;
22778;SDS011;11556;51.194;3.800;2023-06-10T09:45:10;5.95;;;4.53;;
22778;SDS011;11556;51.194;3.800;2023-06-10T09:47:36;5.10;;;4.60;;
22778;SDS011;11556;51.194;3.800;2023-06-10T09:50:02;5.13;;;4.60;;
22778;SDS011;11556;51.194;3.800;2023-06-10T09:52:28;5.55;;;5.00;;
22778;SDS011;11556;51.194;3.800;2023-06-10T09:54:58;4.63;;;4.22;;
22778;SDS011;11556;51.194;3.800;2023-06-10T09:57:25;6.45;;;4.57;;
22778;SDS011;11556;51.194;3.800;2023-06-10T09:59:55;5.97;;;4.97;;
22778;SDS011;11556;51.194;3.800;2023-06-10T10:02:21;4.60;;;3.88;;
22778;SDS011;11556;51.194;3.800;2023-06-10T10:04:46;6.20;;;5.03;;
22778;SDS011;11556;51.194;3.800;2023-06-10T10:07:12;5.70;;;4.40;;
22778;SDS011;11556;51.194;3.800;2023-06-10T10:09:39;4.95;;;4.30;;
22778;SDS011;11556;51.194;3.800;2023-06-10T10:12:09;4.50;;;4.10;;
22778;SDS011;11556;51.194;3.800;2023-06-10T10:14:37;5.05;;;4.32;;
22778;SDS011;11556;51.194;3.800;2023-06-10T10:17:09;5.15;;;4.45;;
22778;SDS011;11556;51.194;3.800;2023-06-10T10:19:46;3.83;;;3.53;;
22778;SDS011;11556;51.194;3.800;2023-06-10T10:22:26;4.18;;;3.78;;
22778;SDS011;11556;51.194;3.800;2023-06-10T10:24:55;4.43;;;4.03;;
22778;SDS011;11556;51.194;3.800;2023-06-10T10:27:38;4.20;;;3.85;;
22778;SDS011;11556;51.194;3.800;2023-06-10T10:30:06;4.10;;;3.60;;
22778;SDS011;11556;51.194;3.800;2023-06-10T10:32:38;4.63;;;3.55;;
22778;SDS011;11556;51.194;3.800;2023-06-10T10:35:08;7.45;;;4.10;;
22778;SDS011;11556;51.194;3.800;2023-06-10T10:37:41;4.93;;;4.50;;
22778;SDS011;11556;51.194;3.800;2023-06-10T10:40:07;4.45;;;4.03;;
22778;SDS011;11556;51.194;3.800;2023-06-10T10:42:34;5.10;;;4.45;;
22778;SDS011;11556;51.194;3.800;2023-06-10T10:45:01;5.07;;;4.57;;
22778;SDS011;11556;51.194;3.800;2023-06-10T10:47:28;6.00;;;4.55;;
22778;SDS011;11556;51.194;3.800;2023-06-10T10:49:55;5.63;;;4.63;;
22778;SDS011;11556;51.194;3.800;2023-06-10T10:52:25;4.60;;;4.20;;
22778;SDS011;11556;51.194;3.800;2023-06-10T10:55:06;8.30;;;4.63;;
22778;SDS011;11556;51.194;3.800;2023-06-10T10:57:38;8.63;;;4.40;;
22778;SDS011;11556;51.194;3.800;2023-06-10T11:00:04;4.90;;;4.50;;
22778;SDS011;11556;51.194;3.800;2023-06-10T11:02:35;6.22;;;4.63;;
22778;SDS011;11556;51.194;3.800;2023-06-10T11:05:09;5.57;;;4.70;;
22778;SDS011;11556;51.194;3.800;2023-06-10T11:07:36;7.38;;;4.72;;
22778;SDS011;11556;51.194;3.800;2023-06-10T11:10:03;4.55;;;4.15;;
22778;SDS011;11556;51.194;3.800;2023-06-10T11:15:07;4.82;;;4.43;;
22778;SDS011;11556;51.194;3.800;2023-06-10T11:17:33;8.73;;;5.18;;
22778;SDS011;11556;51.194;3.800;2023-06-10T11:19:59;5.82;;;4.90;;
22778;SDS011;11556;51.194;3.800;2023-06-10T11:22:25;5.20;;;4.80;;
22778;SDS011;11556;51.194;3.800;2023-06-10T11:24:51;5.03;;;4.43;;
22778;SDS011;11556;51.194;3.800;2023-06-10T11:27:22;6.35;;;4.85;;
22778;SDS011;11556;51.194;3.800;2023-06-10T11:32:29;9.10;;;5.03;;
22778;SDS011;11556;51.194;3.800;2023-06-10T11:34:56;7.45;;;5.07;;
22778;SDS011;11556;51.194;3.800;2023-06-10T11:37:22;5.00;;;4.50;;
22778;SDS011;11556;51.194;3.800;2023-06-10T11:39:54;8.55;;;4.88;;
22778;SDS011;11556;51.194;3.800;2023-06-10T11:42:21;7.32;;;5.07;;
22778;SDS011;11556;51.194;3.800;2023-06-10T11:44:50;5.20;;;4.68;;
22778;SDS011;11556;51.194;3.800;2023-06-10T11:47:17;5.53;;;4.80;;
22778;SDS011;11556;51.194;3.800;2023-06-10T11:49:43;5.85;;;4.60;;
22778;SDS011;11556;51.194;3.800;2023-06-10T11:52:09;6.07;;;4.68;;
22778;SDS011;11556;51.194;3.800;2023-06-10T11:54:36;6.25;;;4.53;;
22778;SDS011;11556;51.194;3.800;2023-06-10T11:57:02;5.45;;;4.90;;
22778;SDS011;11556;51.194;3.800;2023-06-10T11:59:33;5.90;;;4.93;;
22778;SDS011;11556;51.194;3.800;2023-06-10T12:01:59;5.50;;;4.30;;
22778;SDS011;11556;51.194;3.800;2023-06-10T12:04:24;6.90;;;4.97;;
22778;SDS011;11556;51.194;3.800;2023-06-10T12:06:51;5.65;;;4.40;;
22778;SDS011;11556;51.194;3.800;2023-06-10T12:09:28;6.22;;;5.00;;
22778;SDS011;11556;51.194;3.800;2023-06-10T12:12:02;6.85;;;5.07;;
22778;SDS011;11556;51.194;3.800;2023-06-10T12:14:50;5.18;;;4.68;;
22778;SDS011;11556;51.194;3.800;2023-06-10T12:17:21;7.38;;;4.72;;
22778;SDS011;11556;51.194;3.800;2023-06-10T12:19:48;5.47;;;4.57;;
22778;SDS011;11556;51.194;3.800;2023-06-10T12:22:14;5.95;;;4.90;;
22778;SDS011;11556;51.194;3.800;2023-06-10T12:24:56;8.23;;;5.60;;
22778;SDS011;11556;51.194;3.800;2023-06-10T12:27:31;7.43;;;5.00;;
22778;SDS011;11556;51.194;3.800;2023-06-10T12:29:58;5.53;;;4.97;;
22778;SDS011;11556;51.194;3.800;2023-06-10T12:32:36;5.70;;;4.95;;
22778;SDS011;11556;51.194;3.800;2023-06-10T12:35:09;6.75;;;5.03;;
22778;SDS011;11556;51.194;3.800;2023-06-10T12:37:37;6.30;;;4.57;;
22778;SDS011;11556;51.194;3.800;2023-06-10T12:40:04;6.03;;;4.80;;
22778;SDS011;11556;51.194;3.800;2023-06-10T12:42:35;5.32;;;4.82;;
22778;SDS011;11556;51.194;3.800;2023-06-10T12:45:02;5.60;;;5.10;;
22778;SDS011;11556;51.194;3.800;2023-06-10T12:47:32;8.52;;;5.30;;
22778;SDS011;11556;51.194;3.800;2023-06-10T12:50:00;6.15;;;5.03;;
22778;SDS011;11556;51.194;3.800;2023-06-10T12:52:28;10.63;;;5.50;;
22778;SDS011;11556;51.194;3.800;2023-06-10T12:54:54;5.55;;;5.05;;
22778;SDS011;11556;51.194;3.800;2023-06-10T12:57:20;5.88;;;4.97;;
22778;SDS011;11556;51.194;3.800;2023-06-10T12:59:47;8.25;;;5.53;;
22778;SDS011;11556;51.194;3.800;2023-06-10T13:02:17;7.97;;;5.00;;
22778;SDS011;11556;51.194;3.800;2023-06-10T13:04:45;8.85;;;4.85;;
22778;SDS011;11556;51.194;3.800;2023-06-10T13:07:12;5.20;;;4.75;;
22778;SDS011;11556;51.194;3.800;2023-06-10T13:09:38;7.85;;;4.85;;
22778;SDS011;11556;51.194;3.800;2023-06-10T13:12:05;7.85;;;4.95;;
22778;SDS011;11556;51.194;3.800;2023-06-10T13:14:31;5.57;;;4.78;;
22778;SDS011;11556;51.194;3.800;2023-06-10T13:16:57;5.25;;;4.50;;
22778;SDS011;11556;51.194;3.800;2023-06-10T13:19:22;5.38;;;4.95;;
22778;SDS011;11556;51.194;3.800;2023-06-10T13:21:48;5.70;;;4.72;;
22778;SDS011;11556;51.194;3.800;2023-06-10T13:24:13;5.50;;;5.00;;
22778;SDS011;11556;51.194;3.800;2023-06-10T13:26:39;5.47;;;4.78;;
22778;SDS011;11556;51.194;3.800;2023-06-10T13:29:05;5.18;;;4.68;;
22778;SDS011;11556;51.194;3.800;2023-06-10T13:31:30;5.80;;;5.03;;
22778;SDS011;11556;51.194;3.800;2023-06-10T13:33:57;5.50;;;5.00;;
22778;SDS011;11556;51.194;3.800;2023-06-10T13:36:23;6.25;;;5.05;;
22778;SDS011;11556;51.194;3.800;2023-06-10T13:38:49;8.20;;;5.05;;
22778;SDS011;11556;51.194;3.800;2023-06-10T13:41:14;7.22;;;5.55;;
22778;SDS011;11556;51.194;3.800;2023-06-10T13:43:40;8.23;;;5.03;;
22778;SDS011;11556;51.194;3.800;2023-06-10T13:46:06;7.60;;;5.38;;
22778;SDS011;11556;51.194;3.800;2023-06-10T13:48:32;5.35;;;4.85;;
22778;SDS011;11556;51.194;3.800;2023-06-10T13:50:58;6.00;;;5.13;;
22778;SDS011;11556;51.194;3.800;2023-06-10T13:53:24;8.30;;;5.50;;
22778;SDS011;11556;51.194;3.800;2023-06-10T13:55:50;6.70;;;5.00;;
22778;SDS011;11556;51.194;3.800;2023-06-10T13:58:16;6.20;;;4.90;;
22778;SDS011;11556;51.194;3.800;2023-06-10T14:00:42;5.70;;;5.18;;
22778;SDS011;11556;51.194;3.800;2023-06-10T14:03:07;5.60;;;5.03;;
22778;SDS011;11556;51.194;3.800;2023-06-10T14:05:33;9.77;;;5.30;;
22778;SDS011;11556;51.194;3.800;2023-06-10T14:07:59;7.28;;;5.32;;
22778;SDS011;11556;51.194;3.800;2023-06-10T14:10:25;6.88;;;5.10;;
22778;SDS011;11556;51.194;3.800;2023-06-10T14:12:51;5.45;;;4.95;;
22778;SDS011;11556;51.194;3.800;2023-06-10T14:15:16;5.97;;;5.15;;
22778;SDS011;11556;51.194;3.800;2023-06-10T14:17:42;5.65;;;4.97;;
22778;SDS011;11556;51.194;3.800;2023-06-10T14:20:08;6.97;;;5.32;;
22778;SDS011;11556;51.194;3.800;2023-06-10T14:22:34;6.78;;;5.38;;
22778;SDS011;11556;51.194;3.800;2023-06-10T14:24:59;6.07;;;5.22;;
22778;SDS011;11556;51.194;3.800;2023-06-10T14:27:25;6.50;;;5.10;;
22778;SDS011;11556;51.194;3.800;2023-06-10T14:29:51;5.95;;;5.28;;
22778;SDS011;11556;51.194;3.800;2023-06-10T14:32:16;5.88;;;5.25;;
22778;SDS011;11556;51.194;3.800;2023-06-10T14:34:42;6.15;;;5.15;;
22778;SDS011;11556;51.194;3.800;2023-06-10T14:37:10;8.20;;;5.15;;
22778;SDS011;11556;51.194;3.800;2023-06-10T14:39:36;6.40;;;5.18;;
22778;SDS011;11556;51.194;3.800;2023-06-10T14:42:01;6.53;;;5.38;;
22778;SDS011;11556;51.194;3.800;2023-06-10T14:44:27;5.78;;;4.80;;
22778;SDS011;11556;51.194;3.800;2023-06-10T14:46:53;6.65;;;5.20;;
22778;SDS011;11556;51.194;3.800;2023-06-10T14:49:18;6.45;;;5.45;;
22778;SDS011;11556;51.194;3.800;2023-06-10T14:51:44;7.43;;;4.97;;